Time;durP1;ratioP1;P1;durP2;ratioP2;P2;SDS_P1;SDS_P2;PMS_P1;PMS_P2;Temp;Humidity;BMP_temperature;BMP_pressure;BME280_temperature;BME280_humidity;BME280_pressure;Samples;Min_cycle;Max_cycle;Signal;HPM_P1;HPM_P2
2022/01/08 00:00:39;;;;;;;2.60;2.40;;;;;;;;;;5050706;28;20524;-74
2022/01/08 00:03:06;;;;;;;2.33;2.13;;;;;;;;;;5042040;28;20479;-74
2022/01/08 00:05:33;;;;;;;3.27;2.83;;;;;;;;;;5030820;28;20494;-75
2022/01/08 00:08:00;;;;;;;2.83;2.40;;;;;;;;;;5030833;28;20467;-74
2022/01/08 00:10:27;;;;;;;3.90;2.60;;;;;;;;;;5030792;28;20458;-76
2022/01/08 00:12:56;;;;;;;2.47;2.27;;;;;;;;;;5030536;28;20447;-75
2022/01/08 00:15:23;;;;;;;2.33;2.23;;;;;;;;;;5030576;28;20483;-76
2022/01/08 00:17:50;;;;;;;2.77;2.50;;;;;;;;;;5030445;28;20482;-75
2022/01/08 00:20:17;;;;;;;2.50;2.40;;;;;;;;;;5030323;28;20451;-77
2022/01/08 00:22:44;;;;;;;3.60;2.20;;;;;;;;;;5030021;28;20478;-75
2022/01/08 00:25:12;;;;;;;2.13;2.03;;;;;;;;;;5030187;28;20446;-76
2022/01/08 00:27:39;;;;;;;4.47;2.40;;;;;;;;;;5030737;28;20530;-74
2022/01/08 00:30:08;;;;;;;2.20;2.10;;;;;;;;;;5030487;28;21270;-75
2022/01/08 00:32:35;;;;;;;2.50;2.30;;;;;;;;;;5030152;28;20926;-75
2022/01/08 00:35:02;;;;;;;2.33;2.23;;;;;;;;;;5030298;28;20487;-75
2022/01/08 00:37:29;;;;;;;2.03;1.93;;;;;;;;;;5030284;28;20498;-74
2022/01/08 00:39:56;;;;;;;2.43;2.33;;;;;;;;;;5030051;28;21021;-75
2022/01/08 00:42:23;;;;;;;2.27;2.07;;;;;;;;;;5030387;28;20450;-73
2022/01/08 00:44:50;;;;;;;2.37;2.27;;;;;;;;;;5030106;28;20818;-75
2022/01/08 00:47:18;;;;;;;2.47;2.03;;;;;;;;;;5030032;28;20572;-75
2022/01/08 00:49:45;;;;;;;2.83;2.60;;;;;;;;;;5030172;28;20493;-75
2022/01/08 00:52:12;;;;;;;2.43;2.30;;;;;;;;;;5029663;28;20506;-75
2022/01/08 00:54:39;;;;;;;3.07;2.73;;;;;;;;;;5029795;28;20494;-75
2022/01/08 00:57:07;;;;;;;2.60;2.40;;;;;;;;;;5029987;28;20823;-76
2022/01/08 00:59:34;;;;;;;3.17;2.60;;;;;;;;;;5030243;28;20497;-75
2022/01/08 01:02:01;;;;;;;3.17;2.93;;;;;;;;;;5030257;28;20837;-75
2022/01/08 01:04:29;;;;;;;2.67;2.57;;;;;;;;;;5029757;28;20445;-74
2022/01/08 01:06:56;;;;;;;2.73;2.53;;;;;;;;;;5034783;28;20489;-74
2022/01/08 01:09:23;;;;;;;2.77;2.67;;;;;;;;;;5047892;28;20474;-75
2022/01/08 01:11:55;;;;;;;2.90;2.70;;;;;;;;;;5043834;28;20439;-75
2022/01/08 01:14:22;;;;;;;2.93;2.73;;;;;;;;;;5049833;28;20469;-75
2022/01/08 01:16:49;;;;;;;2.87;2.67;;;;;;;;;;5049952;28;20459;-76
2022/01/08 01:19:16;;;;;;;2.70;2.60;;;;;;;;;;5046405;28;20954;-73
2022/01/08 01:21:44;;;;;;;3.10;2.90;;;;;;;;;;5045993;28;20451;-75
2022/01/08 01:24:16;;;;;;;3.03;2.83;;;;;;;;;;5049115;28;20442;-76
2022/01/08 01:27:00;;;;;;;4.50;4.10;;;;;;;;;;5039701;28;20517;-74
2022/01/08 01:29:34;;;;;;;2.80;2.60;;;;;;;;;;5040047;28;20451;-74
2022/01/08 01:43:23;;;;;;;2.83;2.63;;;;;;;;;;5029164;28;20480;-77
2022/01/08 01:48:35;;;;;;;3.27;3.07;;;;;;;;;;5029010;28;20435;-75
2022/01/08 01:51:02;;;;;;;3.30;3.10;;;;;;;;;;5029295;28;20443;-74
2022/01/08 01:53:31;;;;;;;2.70;2.60;;;;;;;;;;5028992;28;20497;-74
2022/01/08 01:55:58;;;;;;;2.60;2.50;;;;;;;;;;5029024;28;20509;-75
2022/01/08 01:58:25;;;;;;;3.22;2.33;;;;;;;;;;5028862;28;20439;-75
2022/01/08 02:00:52;;;;;;;3.10;2.90;;;;;;;;;;5029061;28;20224;-75
2022/01/08 02:03:19;;;;;;;2.77;2.40;;;;;;;;;;5038900;28;20492;-74
2022/01/08 02:05:47;;;;;;;2.77;2.57;;;;;;;;;;5048563;28;20500;-74
2022/01/08 02:08:14;;;;;;;2.53;2.33;;;;;;;;;;5048781;28;20488;-74
2022/01/08 02:10:43;;;;;;;2.77;2.57;;;;;;;;;;5048739;28;20958;-75
2022/01/08 02:13:10;;;;;;;3.03;2.70;;;;;;;;;;5048646;28;20450;-74
2022/01/08 02:15:37;;;;;;;2.70;2.50;;;;;;;;;;5049611;28;20477;-74
2022/01/08 02:18:05;;;;;;;3.20;2.50;;;;;;;;;;5048734;28;20497;-74
2022/01/08 02:20:33;;;;;;;2.60;2.40;;;;;;;;;;5036603;28;20474;-75
2022/01/08 02:23:00;;;;;;;2.43;2.33;;;;;;;;;;5051250;28;20972;-74
2022/01/08 02:25:28;;;;;;;2.50;2.30;;;;;;;;;;5046320;28;20565;-76
2022/01/08 02:27:55;;;;;;;2.33;2.13;;;;;;;;;;5032445;28;20467;-74
2022/01/08 02:30:22;;;;;;;2.57;2.40;;;;;;;;;;5032571;28;20935;-75
2022/01/08 02:32:49;;;;;;;2.40;2.20;;;;;;;;;;5032534;28;20443;-76
2022/01/08 02:35:21;;;;;;;2.90;2.40;;;;;;;;;;5032542;28;20567;-75
2022/01/08 02:37:49;;;;;;;2.40;2.20;;;;;;;;;;5032839;28;20470;-74
2022/01/08 02:40:18;;;;;;;2.67;2.03;;;;;;;;;;5040959;28;20435;-74
2022/01/08 02:42:50;;;;;;;1.93;1.77;;;;;;;;;;5045012;28;20523;-75
2022/01/08 02:45:18;;;;;;;2.73;2.53;;;;;;;;;;5044943;28;20443;-74
2022/01/08 02:47:45;;;;;;;2.03;1.93;;;;;;;;;;5043547;28;20551;-74
2022/01/08 02:50:12;;;;;;;2.63;2.20;;;;;;;;;;5045139;28;20447;-74
2022/01/08 02:52:43;;;;;;;2.33;1.90;;;;;;;;;;5047241;28;20442;-74
2022/01/08 02:55:12;;;;;;;1.83;1.73;;;;;;;;;;5050131;28;20487;-76
2022/01/08 02:57:39;;;;;;;1.97;1.87;;;;;;;;;;5051907;28;20456;-73
2022/01/08 03:00:08;;;;;;;3.03;2.10;;;;;;;;;;5055208;28;20425;-75
2022/01/08 03:02:35;;;;;;;2.47;2.23;;;;;;;;;;5057574;28;20438;-75
2022/01/08 03:05:02;;;;;;;2.93;2.10;;;;;;;;;;5058231;28;20436;-74
2022/01/08 03:07:29;;;;;;;1.80;1.70;;;;;;;;;;5054947;28;20456;-75
2022/01/08 03:09:57;;;;;;;2.43;2.23;;;;;;;;;;5053493;28;20439;-74
2022/01/08 03:12:27;;;;;;;3.20;1.80;;;;;;;;;;5054364;28;20458;-74
2022/01/08 03:14:55;;;;;;;5.60;2.53;;;;;;;;;;5039039;28;20942;-76
2022/01/08 03:17:22;;;;;;;2.60;1.90;;;;;;;;;;5051854;28;20464;-74
2022/01/08 03:19:51;;;;;;;2.33;2.10;;;;;;;;;;5053570;28;20466;-75
2022/01/08 03:22:18;;;;;;;4.93;1.90;;;;;;;;;;5050309;28;20445;-74
2022/01/08 03:24:45;;;;;;;3.47;2.00;;;;;;;;;;5054495;28;20432;-74
2022/01/08 03:27:12;;;;;;;2.10;2.00;;;;;;;;;;5053937;28;20494;-74
2022/01/08 03:29:41;;;;;;;2.40;2.30;;;;;;;;;;5049639;28;20439;-74
2022/01/08 03:32:08;;;;;;;2.17;1.97;;;;;;;;;;5052382;28;20444;-72
2022/01/08 03:34:35;;;;;;;2.63;2.47;;;;;;;;;;5050290;28;20466;-74
2022/01/08 03:37:02;;;;;;;2.43;2.23;;;;;;;;;;5056982;28;20475;-74
2022/01/08 03:39:29;;;;;;;2.30;2.20;;;;;;;;;;5057023;28;20454;-74
2022/01/08 03:41:56;;;;;;;2.50;2.30;;;;;;;;;;5055354;28;20474;-74
2022/01/08 03:44:23;;;;;;;2.60;2.40;;;;;;;;;;5054135;28;20436;-73
2022/01/08 03:46:52;;;;;;;3.13;2.93;;;;;;;;;;5054749;28;20471;-74
2022/01/08 03:49:25;;;;;;;2.33;2.23;;;;;;;;;;5053255;28;20437;-74
2022/01/08 03:51:53;;;;;;;2.30;2.20;;;;;;;;;;5054772;28;20439;-74
2022/01/08 03:54:20;;;;;;;3.13;2.90;;;;;;;;;;5054661;28;20459;-74
2022/01/08 03:56:47;;;;;;;2.50;2.40;;;;;;;;;;5054666;28;20479;-73
2022/01/08 03:59:14;;;;;;;2.70;2.60;;;;;;;;;;5055285;28;20443;-74
2022/01/08 04:01:42;;;;;;;3.00;2.80;;;;;;;;;;5056406;28;20429;-74
2022/01/08 04:04:10;;;;;;;3.13;2.93;;;;;;;;;;5040197;28;20491;-74
2022/01/08 04:06:37;;;;;;;3.20;3.00;;;;;;;;;;5032337;28;20474;-74
2022/01/08 04:09:04;;;;;;;3.00;2.80;;;;;;;;;;5044855;28;20576;-73
2022/01/08 04:11:31;;;;;;;3.30;3.10;;;;;;;;;;5045933;28;20447;-74
2022/01/08 04:13:58;;;;;;;3.77;3.47;;;;;;;;;;5043549;28;20435;-74
2022/01/08 04:16:30;;;;;;;3.37;3.10;;;;;;;;;;5047277;28;20491;-74
2022/01/08 04:18:57;;;;;;;3.63;3.33;;;;;;;;;;5046364;28;20442;-74
2022/01/08 04:21:59;;;;;;;2.97;2.70;;;;;;;;;;5043141;28;20456;-74
2022/01/08 04:24:26;;;;;;;2.83;2.73;;;;;;;;;;5032395;28;20531;-75
2022/01/08 04:26:53;;;;;;;3.30;3.10;;;;;;;;;;5037216;28;21064;-75
2022/01/08 04:29:20;;;;;;;3.63;3.40;;;;;;;;;;5061557;28;20434;-73
2022/01/08 04:31:47;;;;;;;3.13;2.93;;;;;;;;;;5069432;28;20492;-74
2022/01/08 04:34:14;;;;;;;3.20;3.00;;;;;;;;;;5069912;28;20448;-74
2022/01/08 04:36:43;;;;;;;3.30;3.10;;;;;;;;;;5054371;28;20523;-74
2022/01/08 04:39:10;;;;;;;3.03;2.70;;;;;;;;;;5054234;28;20526;-75
2022/01/08 04:41:37;;;;;;;2.50;2.30;;;;;;;;;;5041187;28;20578;-74
2022/01/08 04:44:06;;;;;;;3.80;3.60;;;;;;;;;;5034889;28;20439;-75
2022/01/08 04:46:33;;;;;;;3.40;3.20;;;;;;;;;;5039541;28;20590;-74
2022/01/08 04:49:00;;;;;;;3.30;3.10;;;;;;;;;;5051495;28;20937;-75
2022/01/08 04:51:27;;;;;;;2.90;2.70;;;;;;;;;;5050795;28;20450;-75
2022/01/08 04:53:55;;;;;;;3.03;2.77;;;;;;;;;;5050083;28;21012;-74
2022/01/08 04:56:22;;;;;;;3.50;2.93;;;;;;;;;;5050014;28;20483;-75
2022/01/08 04:58:50;;;;;;;4.13;3.90;;;;;;;;;;5049975;28;20800;-74
2022/01/08 05:01:18;;;;;;;3.07;2.93;;;;;;;;;;5050017;28;20504;-75
2022/01/08 05:03:45;;;;;;;3.37;3.17;;;;;;;;;;5049418;28;20965;-74
2022/01/08 05:06:12;;;;;;;3.00;2.80;;;;;;;;;;5050284;28;20473;-75
2022/01/08 05:08:40;;;;;;;3.43;3.23;;;;;;;;;;5050279;28;20479;-74
2022/01/08 05:11:08;;;;;;;2.90;2.70;;;;;;;;;;5049975;28;20580;-74
2022/01/08 05:13:35;;;;;;;3.40;3.20;;;;;;;;;;5050767;28;20464;-75
2022/01/08 05:16:02;;;;;;;3.13;2.90;;;;;;;;;;5051236;28;20474;-76
2022/01/08 05:18:31;;;;;;;2.73;2.60;;;;;;;;;;5051063;28;20442;-75
2022/01/08 05:21:09;;;;;;;2.80;2.60;;;;;;;;;;5052112;28;20501;-75
2022/01/08 05:23:36;;;;;;;3.07;2.87;;;;;;;;;;5050278;28;20497;-74
2022/01/08 05:26:03;;;;;;;2.50;2.40;;;;;;;;;;5049984;28;20507;-75
2022/01/08 05:28:32;;;;;;;2.70;2.50;;;;;;;;;;5049779;28;20499;-75
2022/01/08 05:30:59;;;;;;;2.77;2.57;;;;;;;;;;5049728;28;20492;-74
2022/01/08 05:33:26;;;;;;;2.50;2.40;;;;;;;;;;5048979;28;20965;-74
2022/01/08 05:35:53;;;;;;;2.13;2.03;;;;;;;;;;5049609;28;20485;-74
2022/01/08 05:38:20;;;;;;;2.53;2.33;;;;;;;;;;5049560;28;20445;-74
2022/01/08 05:40:47;;;;;;;2.40;2.30;;;;;;;;;;5048916;28;20457;-74
2022/01/08 05:43:14;;;;;;;2.40;2.30;;;;;;;;;;5049489;28;20458;-74
2022/01/08 05:45:42;;;;;;;1.90;1.80;;;;;;;;;;5049025;28;20446;-75
2022/01/08 05:48:10;;;;;;;2.07;1.97;;;;;;;;;;5048692;28;20485;-75
2022/01/08 05:50:37;;;;;;;2.10;1.93;;;;;;;;;;5049125;28;20969;-76
2022/01/08 05:53:04;;;;;;;1.53;1.53;;;;;;;;;;5049580;28;20438;-75
2022/01/08 05:55:31;;;;;;;1.73;1.70;;;;;;;;;;5052822;28;20504;-75
2022/01/08 05:57:58;;;;;;;1.50;1.50;;;;;;;;;;5052703;28;20981;-74
2022/01/08 06:00:25;;;;;;;1.33;1.33;;;;;;;;;;5052903;28;20446;-74
2022/01/08 06:02:53;;;;;;;1.40;1.40;;;;;;;;;;5052623;28;20524;-75
2022/01/08 06:05:20;;;;;;;1.60;1.60;;;;;;;;;;5053204;28;20438;-74
2022/01/08 06:07:47;;;;;;;1.47;1.37;;;;;;;;;;5053065;28;20469;-76
2022/01/08 06:10:14;;;;;;;1.23;1.23;;;;;;;;;;5052720;28;21018;-75
2022/01/08 06:12:41;;;;;;;1.70;1.47;;;;;;;;;;5052691;28;20438;-75
2022/01/08 06:15:09;;;;;;;1.00;1.00;;;;;;;;;;5052946;28;20472;-75
2022/01/08 06:17:36;;;;;;;1.10;1.10;;;;;;;;;;5054365;28;20492;-74
2022/01/08 06:20:05;;;;;;;1.00;1.00;;;;;;;;;;5061435;28;20476;-72
2022/01/08 06:22:32;;;;;;;1.27;1.17;;;;;;;;;;5077369;28;20426;-76
2022/01/08 06:24:59;;;;;;;1.07;1.07;;;;;;;;;;5072605;28;21022;-75
2022/01/08 06:27:26;;;;;;;1.57;1.57;;;;;;;;;;5053660;28;20550;-76
2022/01/08 06:29:53;;;;;;;1.80;1.70;;;;;;;;;;5053917;28;20442;-75
2022/01/08 06:32:20;;;;;;;1.77;1.67;;;;;;;;;;5053410;28;20434;-75
2022/01/08 06:34:47;;;;;;;1.60;1.60;;;;;;;;;;5053219;28;20492;-76
2022/01/08 06:37:16;;;;;;;1.33;1.33;;;;;;;;;;5052381;28;20550;-75
2022/01/08 06:39:43;;;;;;;2.80;1.60;;;;;;;;;;5052441;28;20941;-74
2022/01/08 06:42:10;;;;;;;1.20;1.20;;;;;;;;;;5053153;28;20442;-74
2022/01/08 06:44:37;;;;;;;1.40;1.30;;;;;;;;;;5052101;28;21291;-74
2022/01/08 06:47:04;;;;;;;1.50;1.40;;;;;;;;;;5052256;28;21115;-74
2022/01/08 06:49:31;;;;;;;1.63;1.63;;;;;;;;;;5052311;28;20469;-74
2022/01/08 06:51:58;;;;;;;1.97;1.87;;;;;;;;;;5052480;28;20461;-75
2022/01/08 06:54:26;;;;;;;1.70;1.70;;;;;;;;;;5052064;28;20446;-75
2022/01/08 06:56:53;;;;;;;1.70;1.60;;;;;;;;;;5052237;28;20481;-74
2022/01/08 06:59:20;;;;;;;1.37;1.37;;;;;;;;;;5052312;28;20457;-74
2022/01/08 07:01:47;;;;;;;1.80;1.70;;;;;;;;;;5052248;28;20454;-76
2022/01/08 07:04:14;;;;;;;1.90;1.80;;;;;;;;;;5052255;28;20458;-74
2022/01/08 07:06:41;;;;;;;1.70;1.60;;;;;;;;;;5051310;28;20465;-73
2022/01/08 07:09:08;;;;;;;2.13;2.03;;;;;;;;;;5052306;28;20455;-76
2022/01/08 07:11:37;;;;;;;1.90;1.80;;;;;;;;;;5062229;28;20446;-74
2022/01/08 07:14:04;;;;;;;2.23;2.10;;;;;;;;;;5068277;28;20446;-73
2022/01/08 07:16:31;;;;;;;2.13;2.10;;;;;;;;;;5070545;28;20491;-74
2022/01/08 07:18:58;;;;;;;2.40;2.20;;;;;;;;;;5076448;28;20438;-74
2022/01/08 07:21:25;;;;;;;2.30;2.10;;;;;;;;;;5079037;28;20430;-75
2022/01/08 07:23:53;;;;;;;2.47;2.30;;;;;;;;;;5079292;28;20418;-75
2022/01/08 07:26:20;;;;;;;2.33;2.23;;;;;;;;;;5079178;28;20488;-74
2022/01/08 07:28:49;;;;;;;2.13;2.03;;;;;;;;;;5070063;28;20423;-74
2022/01/08 07:31:16;;;;;;;2.30;2.20;;;;;;;;;;5058570;28;20508;-74
2022/01/08 07:33:43;;;;;;;2.60;2.40;;;;;;;;;;5056654;28;20645;-75
2022/01/08 07:36:10;;;;;;;2.87;2.67;;;;;;;;;;5076387;28;20478;-73
2022/01/08 07:38:37;;;;;;;2.83;2.73;;;;;;;;;;5060987;28;20506;-73
2022/01/08 07:41:04;;;;;;;2.67;2.47;;;;;;;;;;5050570;28;20542;-75
2022/01/08 07:43:31;;;;;;;2.27;2.17;;;;;;;;;;5031420;28;20477;-75
2022/01/08 07:45:59;;;;;;;3.43;3.23;;;;;;;;;;5031515;28;20439;-75
2022/01/08 07:48:26;;;;;;;3.57;2.77;;;;;;;;;;5031503;28;20443;-74
2022/01/08 07:50:53;;;;;;;3.30;3.00;;;;;;;;;;5031052;28;20446;-75
2022/01/08 07:53:20;;;;;;;3.07;2.87;;;;;;;;;;5030914;28;20439;-75
2022/01/08 07:55:47;;;;;;;3.60;3.23;;;;;;;;;;5030591;28;20483;-74
2022/01/08 07:58:20;;;;;;;4.53;2.93;;;;;;;;;;5031418;28;20497;-74
2022/01/08 08:00:47;;;;;;;4.00;3.40;;;;;;;;;;5031943;28;20435;-75
2022/01/08 08:03:16;;;;;;;3.60;3.30;;;;;;;;;;5031778;28;20455;-74
2022/01/08 08:05:43;;;;;;;3.53;3.23;;;;;;;;;;5033235;28;20520;-75
2022/01/08 08:08:10;;;;;;;3.30;2.60;;;;;;;;;;5034828;28;20537;-75
2022/01/08 08:10:37;;;;;;;2.60;2.50;;;;;;;;;;5033889;28;20443;-75
2022/01/08 08:13:04;;;;;;;2.97;2.77;;;;;;;;;;5033184;28;20454;-74
2022/01/08 08:15:31;;;;;;;3.33;3.03;;;;;;;;;;5032161;28;20443;-73
2022/01/08 08:17:58;;;;;;;5.43;4.97;;;;;;;;;;5031101;28;20483;-74
2022/01/08 08:20:26;;;;;;;12.90;8.17;;;;;;;;;;5032079;28;20466;-73
2022/01/08 08:22:53;;;;;;;3.70;3.40;;;;;;;;;;5032134;28;20850;-73
2022/01/08 08:25:20;;;;;;;3.10;2.80;;;;;;;;;;5032072;28;20439;-73
2022/01/08 08:27:47;;;;;;;3.40;3.20;;;;;;;;;;5031921;28;20532;-73
2022/01/08 08:30:14;;;;;;;3.33;3.13;;;;;;;;;;5032309;28;20447;-74
2022/01/08 08:32:41;;;;;;;4.37;2.97;;;;;;;;;;5032559;28;20500;-74
2022/01/08 08:35:09;;;;;;;3.70;3.13;;;;;;;;;;5032375;28;20453;-74
2022/01/08 08:37:38;;;;;;;5.00;3.00;;;;;;;;;;5031416;28;20893;-73
2022/01/08 08:40:06;;;;;;;3.23;3.03;;;;;;;;;;5032226;28;20447;-75
2022/01/08 08:42:33;;;;;;;3.10;2.80;;;;;;;;;;5031591;28;20447;-75
2022/01/08 08:45:00;;;;;;;4.97;2.97;;;;;;;;;;5032102;28;20450;-73
2022/01/08 08:47:27;;;;;;;2.93;2.73;;;;;;;;;;5031183;28;20479;-74
2022/01/08 08:49:54;;;;;;;3.17;2.60;;;;;;;;;;5031687;28;20945;-74
2022/01/08 08:52:23;;;;;;;2.50;2.30;;;;;;;;;;5032157;28;20450;-73
2022/01/08 08:54:52;;;;;;;3.27;2.23;;;;;;;;;;5031480;28;20926;-73
2022/01/08 08:57:19;;;;;;;2.87;2.40;;;;;;;;;;5031714;28;20505;-74
2022/01/08 08:59:46;;;;;;;3.90;2.27;;;;;;;;;;5031642;28;20853;-73
2022/01/08 09:02:13;;;;;;;2.40;2.20;;;;;;;;;;5031749;28;20783;-73
2022/01/08 09:04:41;;;;;;;3.30;2.13;;;;;;;;;;5031593;28;20540;-74
2022/01/08 09:07:09;;;;;;;2.27;2.07;;;;;;;;;;5042673;28;20473;-74
2022/01/08 09:09:36;;;;;;;2.50;2.30;;;;;;;;;;5051497;28;20480;-74
2022/01/08 09:12:04;;;;;;;2.23;2.13;;;;;;;;;;5051350;28;20518;-73
2022/01/08 09:14:31;;;;;;;2.40;2.10;;;;;;;;;;5051136;28;20453;-73
2022/01/08 09:17:02;;;;;;;3.80;2.67;;;;;;;;;;5051397;28;20484;-73
2022/01/08 09:19:29;;;;;;;4.73;2.40;;;;;;;;;;5051301;28;20536;-73
2022/01/08 09:21:57;;;;;;;2.80;2.60;;;;;;;;;;5051292;28;20488;-74
2022/01/08 09:24:24;;;;;;;2.47;2.27;;;;;;;;;;5051059;28;20469;-73
2022/01/08 09:26:51;;;;;;;4.30;2.60;;;;;;;;;;5051396;28;20453;-74
2022/01/08 09:29:19;;;;;;;2.83;2.57;;;;;;;;;;5053765;28;20452;-73
2022/01/08 09:31:46;;;;;;;2.90;2.70;;;;;;;;;;5055697;28;20441;-74
2022/01/08 09:34:14;;;;;;;4.20;2.50;;;;;;;;;;5055562;28;20967;-74
2022/01/08 09:36:41;;;;;;;6.07;2.57;;;;;;;;;;5055124;28;20581;-72
2022/01/08 09:39:09;;;;;;;2.60;2.20;;;;;;;;;;5054905;28;21065;-74
2022/01/08 09:41:36;;;;;;;3.50;2.60;;;;;;;;;;5054595;28;20445;-73
2022/01/08 09:44:03;;;;;;;2.60;2.30;;;;;;;;;;5054853;28;20438;-74
2022/01/08 09:46:31;;;;;;;2.73;2.50;;;;;;;;;;5054274;28;21006;-75
2022/01/08 09:48:58;;;;;;;2.60;2.40;;;;;;;;;;5054512;28;20427;-74
2022/01/08 09:51:26;;;;;;;5.80;2.97;;;;;;;;;;5054916;28;20442;-74
2022/01/08 09:53:54;;;;;;;4.17;3.00;;;;;;;;;;5054615;28;20465;-74
2022/01/08 09:56:21;;;;;;;6.53;3.10;;;;;;;;;;5054501;28;20565;-74
2022/01/08 09:58:48;;;;;;;4.07;3.53;;;;;;;;;;5038584;28;20463;-78
2022/01/08 10:01:26;;;;;;;3.40;3.07;;;;;;;;;;5052779;28;20515;-73
2022/01/08 10:03:55;;;;;;;3.33;3.13;;;;;;;;;;5054059;28;20434;-73
2022/01/08 10:06:22;;;;;;;2.90;2.70;;;;;;;;;;5054621;28;20623;-75
2022/01/08 10:08:50;;;;;;;4.00;3.20;;;;;;;;;;5054792;28;20477;-75
2022/01/08 10:11:17;;;;;;;3.20;2.90;;;;;;;;;;5054594;28;20495;-73
2022/01/08 10:13:47;;;;;;;3.27;2.80;;;;;;;;;;5054476;28;20446;-74
2022/01/08 10:19:00;;;;;;;5.77;2.90;;;;;;;;;;5054431;28;20789;-74
2022/01/08 10:21:28;;;;;;;3.13;2.93;;;;;;;;;;5054768;28;20442;-75
2022/01/08 10:23:56;;;;;;;5.03;3.67;;;;;;;;;;5054488;28;20446;-74
2022/01/08 10:26:24;;;;;;;5.13;3.53;;;;;;;;;;5054548;28;20466;-75
2022/01/08 10:28:52;;;;;;;3.07;2.87;;;;;;;;;;5054401;28;20442;-75
2022/01/08 10:31:21;;;;;;;5.53;3.70;;;;;;;;;;5054916;28;20442;-74
2022/01/08 10:33:50;;;;;;;3.13;2.67;;;;;;;;;;5054466;28;20991;-74
2022/01/08 10:36:23;;;;;;;6.80;3.20;;;;;;;;;;5054210;28;20875;-73
2022/01/08 10:38:54;;;;;;;3.13;2.93;;;;;;;;;;5050138;28;20502;-74
2022/01/08 10:41:22;;;;;;;2.93;2.40;;;;;;;;;;5039519;28;20837;-73
2022/01/08 10:43:49;;;;;;;3.80;3.10;;;;;;;;;;5034751;28;20450;-74
2022/01/08 10:46:18;;;;;;;5.57;2.93;;;;;;;;;;5053772;28;20985;-74
2022/01/08 10:48:47;;;;;;;2.57;2.20;;;;;;;;;;5054253;28;20481;-75
2022/01/08 10:51:16;;;;;;;3.07;2.77;;;;;;;;;;5053885;28;20449;-75
2022/01/08 10:53:55;;;;;;;2.73;2.50;;;;;;;;;;5053797;28;20450;-74
2022/01/08 10:56:23;;;;;;;3.40;3.10;;;;;;;;;;5053715;28;20454;-74
2022/01/08 10:58:52;;;;;;;8.80;3.40;;;;;;;;;;5053721;28;20441;-74
2022/01/08 11:01:34;;;;;;;4.80;2.70;;;;;;;;;;5053818;28;20438;-75
2022/01/08 11:04:01;;;;;;;4.37;2.80;;;;;;;;;;5053189;28;20446;-75
2022/01/08 11:06:28;;;;;;;3.03;2.60;;;;;;;;;;5053063;28;20465;-73
2022/01/08 11:09:02;;;;;;;3.53;2.97;;;;;;;;;;5053273;28;20914;-75
2022/01/08 11:11:30;;;;;;;7.13;2.73;;;;;;;;;;5053668;28;20446;-75
2022/01/08 11:14:04;;;;;;;3.57;3.23;;;;;;;;;;5053474;28;20447;-74
2022/01/08 11:16:31;;;;;;;5.93;3.47;;;;;;;;;;5053174;28;20471;-74
2022/01/08 11:18:59;;;;;;;4.13;2.53;;;;;;;;;;5052962;28;20975;-74
2022/01/08 11:21:27;;;;;;;4.30;2.37;;;;;;;;;;5053030;28;20812;-74
2022/01/08 11:23:54;;;;;;;3.80;2.57;;;;;;;;;;5052933;28;20442;-74
2022/01/08 11:26:23;;;;;;;5.53;2.30;;;;;;;;;;5051031;28;20861;-74
2022/01/08 11:28:52;;;;;;;3.37;2.50;;;;;;;;;;5041704;28;20451;-75
2022/01/08 11:31:20;;;;;;;2.00;1.90;;;;;;;;;;5052705;28;20446;-74
2022/01/08 11:33:50;;;;;;;3.57;2.77;;;;;;;;;;5035789;28;20917;-74
2022/01/08 11:36:18;;;;;;;2.67;2.17;;;;;;;;;;5032814;28;20481;-74
2022/01/08 11:38:46;;;;;;;4.33;2.47;;;;;;;;;;5032592;28;20880;-74
2022/01/08 11:41:13;;;;;;;3.37;2.27;;;;;;;;;;5032381;28;20991;-74
2022/01/08 11:43:41;;;;;;;1.87;1.70;;;;;;;;;;5032288;28;20448;-74
2022/01/08 11:46:09;;;;;;;2.90;2.30;;;;;;;;;;5032452;28;20565;-74
2022/01/08 11:48:38;;;;;;;2.40;2.20;;;;;;;;;;5032534;28;20440;-75
2022/01/08 11:51:06;;;;;;;2.90;2.43;;;;;;;;;;5032498;28;20496;-75
2022/01/08 11:53:34;;;;;;;2.67;2.47;;;;;;;;;;5032556;28;20509;-74
2022/01/08 11:56:03;;;;;;;2.97;2.70;;;;;;;;;;5032478;28;20817;-74
2022/01/08 11:58:31;;;;;;;6.77;2.50;;;;;;;;;;5032386;28;20471;-74
2022/01/08 12:01:00;;;;;;;6.30;2.90;;;;;;;;;;5032226;28;20455;-74
2022/01/08 12:03:32;;;;;;;3.87;2.10;;;;;;;;;;5041352;28;20956;-75
2022/01/08 12:05:59;;;;;;;2.33;1.93;;;;;;;;;;5046304;28;20470;-74
2022/01/08 12:08:49;;;;;;;3.77;2.10;;;;;;;;;;5052405;28;20493;-74
2022/01/08 12:11:16;;;;;;;2.90;2.23;;;;;;;;;;5032488;28;20794;-75
2022/01/08 12:13:47;;;;;;;4.83;2.50;;;;;;;;;;5032424;28;20447;-74
2022/01/08 12:16:37;;;;;;;2.80;1.90;;;;;;;;;;5032539;28;20469;-74
2022/01/08 12:19:05;;;;;;;3.30;2.00;;;;;;;;;;5032052;28;20485;-75
2022/01/08 12:21:32;;;;;;;3.47;2.50;;;;;;;;;;5032010;28;20448;-74
2022/01/08 12:24:00;;;;;;;2.57;2.30;;;;;;;;;;5031716;28;20814;-75
2022/01/08 12:26:41;;;;;;;3.97;2.30;;;;;;;;;;5031906;28;20561;-75
2022/01/08 12:29:09;;;;;;;2.73;2.30;;;;;;;;;;5030073;28;20507;-75
2022/01/08 12:31:41;;;;;;;3.70;1.97;;;;;;;;;;5031839;28;20449;-75
2022/01/08 12:34:24;;;;;;;2.87;2.30;;;;;;;;;;5031592;28;20432;-74
2022/01/08 12:36:51;;;;;;;2.40;2.20;;;;;;;;;;5049411;28;20457;-74
2022/01/08 12:39:19;;;;;;;3.53;2.20;;;;;;;;;;5052171;28;20470;-74
2022/01/08 12:41:46;;;;;;;3.77;2.57;;;;;;;;;;5051711;28;20491;-74
2022/01/08 12:44:25;;;;;;;8.13;4.50;;;;;;;;;;5051265;28;20805;-75
2022/01/08 12:46:54;;;;;;;3.40;3.00;;;;;;;;;;5051703;28;20559;-75
2022/01/08 12:49:21;;;;;;;2.73;2.50;;;;;;;;;;5051102;28;20817;-74
2022/01/08 12:52:07;;;;;;;2.70;2.50;;;;;;;;;;5051339;28;20447;-74
2022/01/08 12:54:36;;;;;;;3.43;2.90;;;;;;;;;;5050943;28;20438;-73
2022/01/08 12:57:05;;;;;;;3.77;2.77;;;;;;;;;;5051318;28;20465;-74
2022/01/08 12:59:33;;;;;;;5.03;3.20;;;;;;;;;;5050742;28;20508;-74
2022/01/08 13:02:01;;;;;;;4.00;2.77;;;;;;;;;;5043908;28;20448;-73
2022/01/08 13:04:29;;;;;;;2.93;2.73;;;;;;;;;;5044448;28;20447;-74
2022/01/08 13:06:56;;;;;;;2.80;2.60;;;;;;;;;;5050821;28;20477;-74
2022/01/08 13:09:23;;;;;;;2.93;2.83;;;;;;;;;;5050874;28;20533;-74
2022/01/08 13:11:50;;;;;;;2.90;2.60;;;;;;;;;;5046532;28;20490;-74
2022/01/08 13:14:19;;;;;;;4.80;2.90;;;;;;;;;;5034739;28;20470;-73
2022/01/08 13:16:47;;;;;;;2.60;2.40;;;;;;;;;;5050002;28;20458;-73
2022/01/08 13:19:16;;;;;;;3.37;3.07;;;;;;;;;;5051038;28;20903;-73
2022/01/08 13:21:45;;;;;;;2.57;2.37;;;;;;;;;;5051005;28;20453;-74
2022/01/08 13:24:14;;;;;;;2.83;2.50;;;;;;;;;;5050782;28;20900;-73
2022/01/08 13:26:42;;;;;;;3.10;2.30;;;;;;;;;;5050795;28;20469;-74
2022/01/08 13:29:27;;;;;;;2.70;2.50;;;;;;;;;;5051292;28;20446;-74
2022/01/08 13:31:55;;;;;;;2.60;2.40;;;;;;;;;;5050974;28;20444;-73
2022/01/08 13:34:24;;;;;;;3.23;2.23;;;;;;;;;;5050722;28;20450;-74
2022/01/08 13:36:52;;;;;;;3.77;2.40;;;;;;;;;;5050777;28;20499;-74
2022/01/08 13:39:26;;;;;;;2.30;2.20;;;;;;;;;;5050517;28;20480;-74
2022/01/08 13:42:04;;;;;;;2.70;2.30;;;;;;;;;;5051090;28;20427;-73
2022/01/08 13:44:31;;;;;;;2.63;2.43;;;;;;;;;;5050704;28;20422;-74
2022/01/08 13:46:58;;;;;;;2.40;2.20;;;;;;;;;;5050740;28;20539;-74
2022/01/08 13:49:27;;;;;;;2.53;2.37;;;;;;;;;;5050949;28;20934;-74
2022/01/08 13:51:56;;;;;;;3.60;3.20;;;;;;;;;;5050782;28;20446;-74
2022/01/08 13:54:34;;;;;;;2.53;2.33;;;;;;;;;;5050291;28;20456;-74
2022/01/08 13:57:11;;;;;;;2.53;2.00;;;;;;;;;;5050606;28;20515;-74
2022/01/08 13:59:38;;;;;;;2.70;2.60;;;;;;;;;;5050432;28;20547;-74
2022/01/08 14:02:05;;;;;;;2.90;2.70;;;;;;;;;;5050326;28;20458;-74
2022/01/08 14:04:36;;;;;;;2.50;2.30;;;;;;;;;;5050083;28;20451;-74
2022/01/08 14:07:03;;;;;;;4.10;3.50;;;;;;;;;;5050386;28;20818;-75
2022/01/08 14:09:32;;;;;;;3.00;2.77;;;;;;;;;;5050037;28;20445;-73
2022/01/08 14:12:12;;;;;;;3.33;3.00;;;;;;;;;;5050372;28;20438;-73
2022/01/08 14:14:49;;;;;;;3.10;2.80;;;;;;;;;;5051291;28;20448;-73
2022/01/08 14:17:16;;;;;;;2.70;2.60;;;;;;;;;;5053448;28;21002;-73
2022/01/08 14:19:45;;;;;;;2.87;2.57;;;;;;;;;;5053602;28;20916;-73
2022/01/08 14:22:12;;;;;;;3.17;2.87;;;;;;;;;;5053597;28;20450;-74
2022/01/08 14:24:40;;;;;;;2.80;2.40;;;;;;;;;;5053411;28;20476;-74
2022/01/08 14:27:09;;;;;;;2.80;2.63;;;;;;;;;;5054317;28;20465;-74
2022/01/08 14:29:36;;;;;;;2.47;2.33;;;;;;;;;;5053690;28;20936;-73
2022/01/08 14:32:05;;;;;;;2.20;2.10;;;;;;;;;;5053510;28;20448;-73
2022/01/08 14:34:33;;;;;;;2.67;2.50;;;;;;;;;;5052866;28;20936;-74
2022/01/08 14:37:02;;;;;;;2.90;2.50;;;;;;;;;;5053212;28;21007;-74
2022/01/08 14:39:40;;;;;;;2.83;2.60;;;;;;;;;;5053403;28;20477;-73
2022/01/08 14:42:08;;;;;;;5.27;2.23;;;;;;;;;;5053417;28;20493;-73
2022/01/08 14:44:36;;;;;;;2.53;2.43;;;;;;;;;;5052805;28;21159;-74
2022/01/08 14:47:04;;;;;;;2.80;2.60;;;;;;;;;;5052735;28;21010;-73
2022/01/08 14:49:31;;;;;;;2.70;2.50;;;;;;;;;;5052945;28;20439;-73
2022/01/08 14:51:58;;;;;;;3.27;3.07;;;;;;;;;;5053153;28;20513;-74
2022/01/08 14:54:30;;;;;;;4.10;2.70;;;;;;;;;;5052694;28;20553;-73
2022/01/08 14:56:57;;;;;;;3.37;3.07;;;;;;;;;;5053444;28;20462;-72
2022/01/08 14:59:24;;;;;;;3.40;3.07;;;;;;;;;;5052823;28;20535;-73
2022/01/08 15:01:51;;;;;;;2.73;2.53;;;;;;;;;;5053060;28;20442;-74
2022/01/08 15:04:18;;;;;;;2.97;2.70;;;;;;;;;;5052770;28;20446;-73
2022/01/08 15:06:45;;;;;;;3.97;3.27;;;;;;;;;;5052731;28;20475;-74